createdAt,value
2022-09-23T00:00:39.319Z,3.00
2022-09-23T00:05:41.097Z,3.22
2022-09-23T00:10:42.899Z,3.50
2022-09-23T00:15:44.623Z,3.22
2022-09-23T00:20:46.441Z,3.47
2022-09-23T00:26:00.355Z,3.17
2022-09-23T00:31:06.470Z,2.72
2022-09-23T00:36:12.096Z,2.47
2022-09-23T00:41:16.052Z,2.88
2022-09-23T00:46:26.282Z,2.72
2022-09-23T00:51:35.024Z,3.00
2022-09-23T00:56:38.484Z,2.88
2022-09-23T01:01:40.853Z,2.40
2022-09-23T01:06:42.877Z,2.45
2022-09-23T01:12:03.070Z,2.95
2022-09-23T01:17:13.674Z,3.08
2022-09-23T01:22:27.032Z,2.50
2022-09-23T01:27:53.272Z,2.88
2022-09-23T01:32:57.858Z,2.70
2022-09-23T01:38:31.992Z,2.67
2022-09-23T01:44:01.003Z,3.05
2022-09-23T01:49:21.800Z,2.72
2022-09-23T01:54:38.840Z,2.45
2022-09-23T01:59:47.106Z,2.50
2022-09-23T02:04:57.170Z,2.60
2022-09-23T02:10:17.136Z,2.40
2022-09-23T02:15:24.783Z,2.55
2022-09-23T02:20:33.413Z,2.28
2022-09-23T02:25:56.560Z,2.47
2022-09-23T02:31:32.783Z,1.92
2022-09-23T02:37:10.620Z,2.53
2022-09-23T02:42:24.863Z,2.20
2022-09-23T02:47:31.371Z,2.25
2022-09-23T02:52:33.667Z,2.47
2022-09-23T02:57:35.614Z,2.60
2022-09-23T03:03:00.855Z,2.40
2022-09-23T03:08:45.457Z,2.40
2022-09-23T03:14:18.004Z,2.20
2022-09-23T03:19:24.044Z,2.20
2022-09-23T03:24:27.869Z,2.05
2022-09-23T03:29:30.564Z,1.95
2022-09-23T03:34:34.970Z,2.08
2022-09-23T03:39:44.190Z,2.17
2022-09-23T03:44:53.946Z,1.85
2022-09-23T03:49:56.746Z,2.15
2022-09-23T03:54:58.500Z,1.80
2022-09-23T04:00:00.308Z,1.83
2022-09-23T04:05:02.071Z,2.10
2022-09-23T04:10:05.054Z,1.88
2022-09-23T04:15:07.329Z,1.85
2022-09-23T04:20:09.876Z,1.90
2022-09-23T04:25:11.605Z,1.75
2022-09-23T04:30:13.674Z,2.15
2022-09-23T04:35:15.561Z,1.90
2022-09-23T04:40:17.338Z,1.92
2022-09-23T04:45:19.209Z,2.35
2022-09-23T04:50:21.039Z,2.60
2022-09-23T04:55:22.941Z,2.10
2022-09-23T05:00:24.713Z,3.03
2022-09-23T05:05:28.091Z,2.67
2022-09-23T05:10:29.822Z,2.65
2022-09-23T05:15:31.536Z,2.47
2022-09-23T05:20:33.298Z,2.78
2022-09-23T05:25:38.219Z,3.00
2022-09-23T05:30:40.181Z,2.90
2022-09-23T05:35:47.400Z,2.90
2022-09-23T05:40:56.425Z,2.93
2022-09-23T05:46:10.536Z,3.05
2022-09-23T05:51:18.394Z,3.80
2022-09-23T06:01:26.322Z,4.63
2022-09-23T06:06:33.691Z,5.28
2022-09-23T06:11:36.471Z,5.40
2022-09-23T06:16:38.203Z,6.10
2022-09-23T06:21:40.973Z,6.30
2022-09-23T06:26:42.754Z,5.28
2022-09-23T06:31:44.737Z,4.70
2022-09-23T06:36:46.867Z,5.00
2022-09-23T06:41:48.634Z,4.78
2022-09-23T06:46:51.197Z,4.82
2022-09-23T06:51:52.945Z,4.15
2022-09-23T06:56:55.388Z,3.90
2022-09-23T07:01:57.228Z,4.13
2022-09-23T07:06:59.236Z,4.43
2022-09-23T07:12:01.119Z,4.35
2022-09-23T07:17:03.621Z,3.83
2022-09-23T07:22:05.432Z,3.30
2022-09-23T07:27:07.144Z,3.45
2022-09-23T07:32:14.008Z,3.30
2022-09-23T07:37:17.252Z,2.80
2022-09-23T07:42:18.983Z,4.30
2022-09-23T07:47:20.742Z,2.90
2022-09-23T07:52:23.131Z,7.45
2022-09-23T07:57:24.911Z,4.47
2022-09-23T08:02:27.023Z,3.78
2022-09-23T08:07:28.817Z,3.25
2022-09-23T08:12:31.050Z,3.28
2022-09-23T08:17:32.805Z,4.70
2022-09-23T08:22:34.524Z,4.30
2022-09-23T08:27:36.246Z,3.92
2022-09-23T08:32:37.992Z,3.58
2022-09-23T08:37:39.792Z,3.42
2022-09-23T08:42:44.058Z,4.15
2022-09-23T08:48:12.935Z,3.67
2022-09-23T08:53:35.343Z,5.38
2022-09-23T08:58:44.283Z,3.15
2022-09-23T09:04:12.689Z,4.00
2022-09-23T09:09:29.094Z,3.92
2022-09-23T09:15:01.289Z,4.25
2022-09-23T09:20:16.148Z,4.63
2022-09-23T09:25:23.684Z,4.35
2022-09-23T09:30:25.628Z,2.85
2022-09-23T09:36:14.647Z,2.70
2022-09-23T09:41:18.085Z,5.18
2022-09-23T09:46:51.128Z,3.08
2022-09-23T09:52:19.408Z,3.20
2022-09-23T09:57:33.587Z,2.63
2022-09-23T10:02:40.685Z,2.78
2022-09-23T10:07:42.454Z,2.30
2022-09-23T10:12:46.996Z,2.38
2022-09-23T10:17:51.679Z,2.10
2022-09-23T10:22:53.535Z,1.90
2022-09-23T10:27:55.275Z,1.85
2022-09-23T10:32:57.221Z,2.20
2022-09-23T10:38:02.053Z,1.65
2022-09-23T10:43:57.759Z,1.60
2022-09-23T10:49:21.126Z,1.75
2022-09-23T10:54:31.911Z,1.70
2022-09-23T11:00:24.888Z,1.80
2022-09-23T11:05:58.962Z,1.75
2022-09-23T11:11:23.318Z,1.90
2022-09-23T11:16:40.847Z,1.70
2022-09-23T11:22:15.950Z,2.17
2022-09-23T11:27:31.319Z,1.60
2022-09-23T11:32:51.752Z,1.52
2022-09-23T11:38:25.240Z,1.80
2022-09-23T11:43:31.261Z,1.73
2022-09-23T11:48:42.070Z,1.98
2022-09-23T11:54:22.822Z,1.73
2022-09-23T12:05:06.704Z,1.65
2022-09-23T12:10:10.632Z,1.67
2022-09-23T12:15:47.035Z,1.55
2022-09-23T12:21:18.298Z,1.73
2022-09-23T12:26:31.179Z,1.80
2022-09-23T12:31:40.381Z,1.98
2022-09-23T12:36:43.948Z,1.83
2022-09-23T12:41:53.893Z,1.63
2022-09-23T12:47:24.983Z,2.00
2022-09-23T12:52:32.603Z,1.65
2022-09-23T12:57:34.451Z,1.63
2022-09-23T13:02:46.715Z,1.50
2022-09-23T13:07:50.154Z,1.50
2022-09-23T13:12:53.325Z,2.10
2022-09-23T13:18:21.068Z,1.90
2022-09-23T13:23:22.791Z,1.50
2022-09-23T13:28:33.931Z,1.38
2022-09-23T13:33:43.892Z,1.80
2022-09-23T13:38:49.139Z,1.42
2022-09-23T13:43:54.060Z,1.27
2022-09-23T13:48:56.547Z,1.55
2022-09-23T13:54:00.243Z,1.60
2022-09-23T13:59:20.515Z,1.70
2022-09-23T14:04:26.426Z,1.65
2022-09-23T14:09:30.232Z,1.55
2022-09-23T14:14:37.118Z,1.42
2022-09-23T14:19:39.110Z,1.60
2022-09-23T14:24:41.175Z,2.80
2022-09-23T14:29:46.519Z,2.20
2022-09-23T14:35:00.808Z,1.67
2022-09-23T14:40:09.739Z,1.73
2022-09-23T14:45:18.796Z,1.60
2022-09-23T14:50:40.388Z,1.65
2022-09-23T14:55:43.900Z,1.33
2022-09-23T15:00:54.357Z,1.70
2022-09-23T15:06:08.509Z,1.85
2022-09-23T15:11:11.808Z,2.08
2022-09-23T15:16:15.902Z,1.55
2022-09-23T15:21:21.266Z,2.13
2022-09-23T15:26:39.293Z,1.67
2022-09-23T15:31:41.329Z,1.85
2022-09-23T15:36:43.125Z,1.70
2022-09-23T15:41:44.908Z,2.28
2022-09-23T15:46:51.930Z,2.80
2022-09-23T15:51:55.797Z,6.00
2022-09-23T15:56:58.038Z,4.55
2022-09-23T16:02:05.716Z,1.95
2022-09-23T16:07:14.291Z,2.00
2022-09-23T16:12:16.200Z,2.00
2022-09-23T16:17:18.424Z,1.80
2022-09-23T16:22:20.244Z,1.80
2022-09-23T16:27:22.495Z,1.73
2022-09-23T16:32:24.329Z,2.17
2022-09-23T16:37:26.306Z,1.70
2022-09-23T16:42:28.659Z,1.75
2022-09-23T16:47:31.202Z,1.83
2022-09-23T16:52:32.936Z,1.75
2022-09-23T16:57:38.935Z,1.85
2022-09-23T17:02:58.977Z,1.58
2022-09-23T17:08:00.877Z,2.42
2022-09-23T17:13:02.883Z,2.60
2022-09-23T17:18:06.505Z,3.08
2022-09-23T17:23:08.263Z,2.10
2022-09-23T17:28:10.345Z,2.08
2022-09-23T17:33:12.289Z,2.50
2022-09-23T17:38:14.042Z,2.00
2022-09-23T17:43:16.637Z,2.10
2022-09-23T17:48:19.473Z,2.20
2022-09-23T17:53:21.438Z,2.30
2022-09-23T17:58:28.095Z,2.00
2022-09-23T18:03:31.700Z,1.92
2022-09-23T18:08:33.437Z,2.28
2022-09-23T18:13:35.188Z,2.20
2022-09-23T18:18:36.992Z,3.28
2022-09-23T18:23:38.802Z,2.08
2022-09-23T18:28:40.835Z,2.10
2022-09-23T18:33:42.778Z,2.30
2022-09-23T18:38:46.078Z,2.58
2022-09-23T18:43:49.083Z,2.78
2022-09-23T18:49:11.010Z,2.70
2022-09-23T18:54:12.804Z,2.55
2022-09-23T18:59:17.718Z,2.33
2022-09-23T19:04:21.459Z,7.90
2022-09-23T19:09:23.520Z,2.97
2022-09-23T19:14:25.334Z,2.45
2022-09-23T19:19:30.034Z,1.90
2022-09-23T19:24:31.836Z,2.28
2022-09-23T19:29:33.574Z,2.15
2022-09-23T19:34:35.817Z,4.93
2022-09-23T19:39:37.610Z,2.50
2022-09-23T19:44:40.915Z,2.28
2022-09-23T19:49:42.824Z,2.67
2022-09-23T19:54:45.117Z,2.47
2022-09-23T19:59:46.911Z,2.28
2022-09-23T20:04:51.367Z,2.25
2022-09-23T20:09:53.114Z,2.72
2022-09-23T20:14:54.927Z,2.80
2022-09-23T20:19:56.983Z,2.53
2022-09-23T20:24:59.498Z,2.60
2022-09-23T20:30:01.875Z,2.85
2022-09-23T20:35:05.658Z,2.83
2022-09-23T20:40:08.425Z,2.40
2022-09-23T20:45:10.515Z,2.95
2022-09-23T20:50:12.244Z,2.20
2022-09-23T20:55:14.215Z,2.33
2022-09-23T21:00:18.292Z,2.30
2022-09-23T21:05:20.204Z,2.40
2022-09-23T21:10:22.701Z,2.08
2022-09-23T21:15:24.444Z,2.10
2022-09-23T21:20:26.394Z,2.15
2022-09-23T21:25:29.607Z,1.98
2022-09-23T21:30:32.188Z,2.13
2022-09-23T21:35:33.957Z,1.98
2022-09-23T21:40:54.633Z,2.17
2022-09-23T21:46:01.154Z,2.10
2022-09-23T21:51:08.225Z,2.55
2022-09-23T21:56:15.721Z,2.13
2022-09-23T22:01:22.535Z,2.00
2022-09-23T22:06:28.847Z,2.00
2022-09-23T22:11:50.670Z,1.95
2022-09-23T22:16:57.473Z,2.00
2022-09-23T22:22:00.063Z,2.10
2022-09-23T22:27:01.875Z,2.40
2022-09-23T22:32:24.627Z,2.20
2022-09-23T22:37:30.238Z,2.00
2022-09-23T22:42:32.456Z,1.70
2022-09-23T22:47:38.052Z,2.30
2022-09-23T22:52:40.544Z,2.03
2022-09-23T22:57:42.280Z,1.92
2022-09-23T23:02:43.983Z,2.10
2022-09-23T23:07:45.716Z,2.25
2022-09-23T23:12:49.104Z,1.85
2022-09-23T23:17:53.671Z,2.08
2022-09-23T23:22:55.624Z,2.33
2022-09-23T23:27:57.872Z,2.10
2022-09-23T23:32:59.607Z,2.10
2022-09-23T23:38:01.385Z,2.10
2022-09-23T23:43:05.163Z,2.45
2022-09-23T23:48:06.905Z,2.20
2022-09-23T23:53:11.684Z,2.47
2022-09-23T23:58:14.411Z,2.60
